Time;durP1;ratioP1;P1;durP2;ratioP2;P2;SDS_P1;SDS_P2;PMS_P1;PMS_P2;Temp;Humidity;BMP_temperature;BMP_pressure;BME280_temperature;BME280_humidity;BME280_pressure;Samples;Min_cycle;Max_cycle;Signal;HPM_P1;HPM_P2
2021/12/05 00:16:56;;;;;;;0.60;0.60;;;1.90;99.90;;;;;;4407628;32;20093;-68
2021/12/05 00:18:42;;;;;;;1.75;1.60;;;1.90;99.90;;;;;;4409056;32;20081;-67
2021/12/05 00:21:40;;;;;;;0.62;0.62;;;1.90;99.90;;;;;;4405846;32;20128;-67
2021/12/05 00:23:19;;;;;;;2.72;1.83;;;2.00;99.90;;;;;;4413479;32;20474;-68
2021/12/05 00:25:49;;;;;;;2.50;1.48;;;1.90;99.90;;;;;;4427953;32;20137;-68
2021/12/05 00:28:40;;;;;;;0.62;0.62;;;2.00;99.90;;;;;;4427945;32;20096;-69
2021/12/05 00:31:21;;;;;;;3.37;1.55;;;2.00;99.90;;;;;;4415377;32;20100;-68
2021/12/05 00:34:01;;;;;;;1.75;1.30;;;1.90;99.90;;;;;;4421278;32;20123;-68
2021/12/05 00:37:12;;;;;;;1.33;1.12;;;1.80;99.90;;;;;;4422927;32;20069;-68
2021/12/05 00:40:42;;;;;;;0.62;0.62;;;1.80;99.90;;;;;;4409690;32;20081;-68
2021/12/05 00:42:27;;;;;;;0.98;0.95;;;1.80;99.90;;;;;;4403138;32;20134;-68
2021/12/05 00:45:42;;;;;;;0.50;0.50;;;1.90;99.90;;;;;;4413627;32;20077;-68
2021/12/05 00:47:55;;;;;;;0.85;0.85;;;1.80;99.90;;;;;;4409751;32;20092;-67
2021/12/05 00:50:44;;;;;;;0.62;0.62;;;1.80;99.90;;;;;;4407197;32;20392;-68
2021/12/05 00:53:27;;;;;;;0.93;0.93;;;1.80;99.90;;;;;;4404536;32;20174;-68
2021/12/05 01:00:37;;;;;;;0.70;0.70;;;1.80;99.90;;;;;;4428600;32;20579;-67
2021/12/05 01:02:46;;;;;;;0.50;0.50;;;1.80;99.90;;;;;;4417716;32;20097;-67
2021/12/05 01:04:15;;;;;;;2.17;1.95;;;1.80;99.90;;;;;;4415414;32;20555;-67
2021/12/05 01:06:55;;;;;;;1.12;1.12;;;1.80;99.90;;;;;;4415601;32;20101;-67
2021/12/05 01:09:33;;;;;;;1.08;1.02;;;1.80;99.90;;;;;;4410539;32;20571;-67
2021/12/05 01:12:16;;;;;;;0.75;0.75;;;1.80;99.90;;;;;;4420361;32;20494;-67
2021/12/05 01:17:14;;;;;;;9.45;2.05;;;1.80;99.90;;;;;;4419776;32;20134;-67
2021/12/05 01:19:39;;;;;;;1.48;1.30;;;1.80;99.90;;;;;;4421542;32;20085;-67
2021/12/05 01:22:11;;;;;;;1.65;1.55;;;1.90;99.90;;;;;;4421079;32;20054;-67
2021/12/05 01:27:35;;;;;;;1.60;1.10;;;1.80;99.90;;;;;;4429332;32;20115;-67
2021/12/05 01:29:59;;;;;;;0.60;0.60;;;1.80;99.90;;;;;;4412114;32;20118;-67
2021/12/05 01:33:36;;;;;;;3.47;1.98;;;1.90;99.90;;;;;;4428363;32;20069;-67
2021/12/05 01:35:26;;;;;;;3.70;0.88;;;1.90;99.90;;;;;;4416660;32;20517;-67
2021/12/05 01:38:03;;;;;;;2.28;1.87;;;1.90;99.90;;;;;;4424268;32;20073;-67
2021/12/05 01:40:49;;;;;;;6.22;1.67;;;1.90;99.90;;;;;;4420836;32;20091;-67
2021/12/05 01:44:38;;;;;;;0.90;0.90;;;1.90;99.90;;;;;;4415965;32;20129;-67
2021/12/05 01:47:36;;;;;;;0.75;0.75;;;1.80;99.90;;;;;;4400290;32;20080;-67
2021/12/05 01:50:09;;;;;;;0.50;0.50;;;1.80;99.90;;;;;;4410167;32;20129;-67
2021/12/05 01:54:34;;;;;;;1.25;1.15;;;1.90;99.90;;;;;;4402397;32;20085;-67
2021/12/05 01:59:42;;;;;;;1.23;1.05;;;1.80;99.90;;;;;;4418359;32;20108;-67
2021/12/05 02:02:41;;;;;;;0.90;0.90;;;1.80;99.90;;;;;;4412849;32;20509;-66
2021/12/05 02:08:01;;;;;;;4.70;2.70;;;1.80;99.90;;;;;;4415778;32;20080;-67
2021/12/05 02:30:05;;;;;;;4.07;1.42;;;1.80;99.90;;;;;;4407479;32;20061;-66
2021/12/05 02:32:52;;;;;;;2.22;1.48;;;1.80;99.90;;;;;;4407987;32;20133;-66
2021/12/05 02:38:09;;;;;;;1.25;1.15;;;1.80;99.90;;;;;;4416721;32;20120;-67
2021/12/05 02:41:06;;;;;;;1.02;1.02;;;1.80;99.90;;;;;;4420033;32;20057;-67
2021/12/05 02:43:41;;;;;;;0.75;0.75;;;1.80;99.90;;;;;;4403614;32;20069;-67
2021/12/05 02:46:07;;;;;;;2.08;1.00;;;1.80;99.90;;;;;;4404407;32;20125;-67
2021/12/05 02:48:36;;;;;;;1.17;1.08;;;1.80;99.90;;;;;;4417202;32;20065;-66
2021/12/05 02:51:10;;;;;;;1.10;1.02;;;1.80;99.90;;;;;;4417628;32;20541;-67
2021/12/05 02:53:42;;;;;;;1.17;1.10;;;1.70;99.90;;;;;;4414908;32;20123;-66
2021/12/05 02:56:10;;;;;;;0.70;0.70;;;1.70;99.90;;;;;;4413555;32;20070;-67
2021/12/05 02:58:45;;;;;;;0.62;0.62;;;1.70;99.90;;;;;;4422861;32;20058;-66
2021/12/05 03:01:20;;;;;;;6.43;1.65;;;1.70;99.90;;;;;;4426090;32;20069;-66
2021/12/05 03:03:46;;;;;;;1.25;1.10;;;1.70;99.90;;;;;;4417950;32;20515;-67
2021/12/05 03:06:20;;;;;;;1.42;1.33;;;1.70;99.90;;;;;;4424574;32;20391;-66
2021/12/05 03:08:49;;;;;;;0.82;0.82;;;1.70;99.90;;;;;;4417545;32;20077;-67
2021/12/05 03:11:16;;;;;;;0.60;0.60;;;1.80;99.90;;;;;;4417873;32;20073;-66
2021/12/05 03:13:42;;;;;;;1.95;1.65;;;1.80;99.90;;;;;;4421011;32;20086;-67
2021/12/05 03:16:10;;;;;;;0.95;0.93;;;1.90;99.90;;;;;;4424611;32;20058;-67
2021/12/05 03:18:36;;;;;;;0.88;0.88;;;1.90;99.90;;;;;;4421811;32;20127;-67
2021/12/05 03:21:04;;;;;;;0.40;0.40;;;1.90;99.90;;;;;;4418929;32;20160;-67
2021/12/05 03:23:31;;;;;;;0.65;0.65;;;1.90;99.90;;;;;;4419910;32;20069;-66
2021/12/05 03:25:56;;;;;;;1.92;1.58;;;2.00;99.90;;;;;;4424727;32;20541;-67
2021/12/05 03:28:23;;;;;;;1.02;1.00;;;2.00;99.90;;;;;;4416533;32;20081;-67
2021/12/05 03:30:48;;;;;;;1.12;1.02;;;1.90;99.90;;;;;;4415001;32;20086;-68
2021/12/05 03:33:14;;;;;;;1.87;1.55;;;2.00;99.90;;;;;;4424057;32;20104;-67
2021/12/05 03:35:39;;;;;;;1.00;1.00;;;2.00;99.90;;;;;;4415903;32;20117;-68
2021/12/05 03:38:05;;;;;;;2.53;1.75;;;2.10;99.90;;;;;;4419529;32;20124;-67
2021/12/05 03:40:33;;;;;;;0.73;0.73;;;2.10;99.90;;;;;;4422397;32;20065;-68
2021/12/05 03:43:01;;;;;;;2.22;1.42;;;2.10;99.90;;;;;;4420590;32;20573;-67
2021/12/05 03:45:33;;;;;;;1.12;1.02;;;2.10;99.90;;;;;;4423379;32;20546;-68
2021/12/05 03:47:58;;;;;;;0.98;0.98;;;2.10;99.90;;;;;;4418212;32;20318;-67
2021/12/05 03:50:25;;;;;;;1.83;1.35;;;2.00;99.90;;;;;;4421388;32;20582;-68
2021/12/05 03:52:52;;;;;;;2.25;1.30;;;1.90;99.90;;;;;;4417974;32;20090;-68
2021/12/05 03:55:18;;;;;;;0.70;0.70;;;1.90;99.90;;;;;;4421680;32;20175;-68
2021/12/05 03:57:44;;;;;;;0.60;0.60;;;1.90;99.90;;;;;;4419775;32;20073;-68
2021/12/05 04:00:16;;;;;;;0.80;0.80;;;1.80;99.90;;;;;;4418652;32;20068;-68
2021/12/05 04:02:41;;;;;;;1.08;0.98;;;1.70;99.90;;;;;;4426349;32;20068;-68
2021/12/05 04:05:07;;;;;;;4.78;2.42;;;1.70;99.90;;;;;;4420683;32;20074;-68
2021/12/05 04:07:33;;;;;;;6.85;2.58;;;1.70;99.90;;;;;;4426087;32;20077;-67
2021/12/05 04:09:59;;;;;;;8.52;2.15;;;1.70;99.90;;;;;;4416126;32;20136;-67
2021/12/05 04:12:34;;;;;;;0.82;0.82;;;1.70;99.90;;;;;;4422096;32;20489;-67
2021/12/05 04:15:00;;;;;;;3.87;1.73;;;1.70;99.90;;;;;;4421348;32;20070;-68
2021/12/05 04:17:25;;;;;;;0.90;0.85;;;1.80;99.90;;;;;;4416350;32;20129;-68
2021/12/05 04:19:52;;;;;;;1.33;1.25;;;1.90;99.90;;;;;;4424796;32;20065;-67
2021/12/05 04:22:18;;;;;;;0.60;0.60;;;1.80;99.90;;;;;;4415474;32;20074;-68
2021/12/05 04:24:45;;;;;;;0.65;0.65;;;1.90;99.90;;;;;;4424175;32;20070;-68
2021/12/05 04:27:11;;;;;;;1.02;1.02;;;1.90;99.90;;;;;;4424469;32;20066;-68
2021/12/05 04:29:37;;;;;;;2.53;1.50;;;1.90;99.90;;;;;;4416553;32;20070;-68
2021/12/05 04:32:03;;;;;;;0.70;0.70;;;2.00;99.90;;;;;;4414406;32;104596;-67
2021/12/05 04:34:29;;;;;;;1.27;0.82;;;1.90;99.90;;;;;;4420796;32;20058;-68
2021/12/05 04:36:56;;;;;;;0.40;0.40;;;2.00;99.90;;;;;;4416297;32;20074;-68
2021/12/05 04:39:23;;;;;;;0.75;0.57;;;2.00;99.90;;;;;;4420970;32;20090;-68
2021/12/05 04:41:49;;;;;;;0.82;0.82;;;2.00;99.90;;;;;;4425864;32;20057;-68
2021/12/05 04:44:15;;;;;;;4.37;2.15;;;2.00;99.90;;;;;;4420765;32;20391;-68
2021/12/05 04:46:40;;;;;;;2.92;1.67;;;2.10;99.90;;;;;;4417361;32;20197;-68
2021/12/05 04:49:07;;;;;;;2.70;1.45;;;2.10;99.90;;;;;;4425889;32;20448;-68
2021/12/05 04:51:36;;;;;;;0.57;0.57;;;2.00;99.90;;;;;;4421818;32;20083;-68
2021/12/05 04:54:03;;;;;;;2.62;1.80;;;1.90;99.90;;;;;;4414776;32;20483;-68
2021/12/05 04:56:29;;;;;;;1.45;1.35;;;1.90;99.90;;;;;;4424300;32;20086;-68
2021/12/05 04:58:56;;;;;;;0.37;0.37;;;2.10;99.90;;;;;;4415158;32;20071;-68
2021/12/05 05:01:23;;;;;;;1.50;0.85;;;2.10;99.90;;;;;;4415598;32;20065;-67
2021/12/05 05:03:49;;;;;;;0.80;0.80;;;2.30;99.90;;;;;;4423693;32;20087;-68
2021/12/05 05:06:16;;;;;;;1.95;1.52;;;2.20;99.90;;;;;;4415006;32;20085;-68
2021/12/05 05:08:50;;;;;;;1.35;1.25;;;2.10;99.90;;;;;;4417107;32;20132;-68
2021/12/05 05:11:17;;;;;;;0.70;0.70;;;2.10;99.90;;;;;;4421807;32;20434;-69
2021/12/05 05:13:44;;;;;;;0.75;0.75;;;2.10;99.90;;;;;;4421148;32;20505;-68
2021/12/05 05:16:13;;;;;;;1.05;1.02;;;2.10;99.90;;;;;;4420295;32;20109;-68
2021/12/05 05:18:47;;;;;;;0.55;0.55;;;2.20;99.90;;;;;;4415849;32;20057;-68
2021/12/05 05:21:28;;;;;;;1.00;0.95;;;2.30;99.90;;;;;;4421748;32;20072;-67
2021/12/05 05:29:29;;;;;;;1.05;0.98;;;2.30;99.90;;;;;;4416396;32;20707;-68
2021/12/05 05:39:42;;;;;;;1.55;1.25;;;2.30;99.90;;;;;;4410800;32;20156;-68
2021/12/05 05:43:13;;;;;;;1.85;1.23;;;2.30;99.90;;;;;;4405785;32;20073;-67
2021/12/05 05:46:04;;;;;;;0.68;0.68;;;2.30;99.90;;;;;;4425115;32;20544;-67
2021/12/05 05:48:32;;;;;;;1.45;1.35;;;2.30;99.90;;;;;;4413439;32;20087;-68
2021/12/05 05:50:58;;;;;;;1.52;1.25;;;2.30;99.90;;;;;;4423158;32;20073;-68
2021/12/05 05:53:24;;;;;;;3.30;0.98;;;2.40;99.90;;;;;;4413706;32;20073;-68
2021/12/05 05:55:52;;;;;;;1.40;1.30;;;2.40;99.90;;;;;;4413740;32;20086;-68
2021/12/05 05:58:20;;;;;;;1.20;1.17;;;2.40;99.90;;;;;;4416824;32;20108;-68
2021/12/05 06:01:00;;;;;;;2.72;1.85;;;2.40;99.90;;;;;;4414891;32;20065;-68
2021/12/05 06:03:25;;;;;;;0.90;0.90;;;2.30;99.90;;;;;;4418030;32;20064;-67
2021/12/05 06:06:12;;;;;;;0.93;0.90;;;2.20;99.90;;;;;;4422777;32;20128;-68
2021/12/05 06:08:39;;;;;;;1.08;1.02;;;2.20;99.90;;;;;;4425294;32;20082;-67
2021/12/05 06:11:10;;;;;;;0.77;0.77;;;2.10;99.90;;;;;;4423636;32;20156;-68
2021/12/05 06:13:36;;;;;;;1.08;0.75;;;2.10;99.90;;;;;;4416835;32;20120;-68
2021/12/05 06:16:02;;;;;;;1.45;1.35;;;2.20;99.90;;;;;;4414773;32;20061;-68
2021/12/05 06:18:29;;;;;;;1.05;1.05;;;2.20;99.90;;;;;;4415655;32;20069;-68
2021/12/05 06:20:55;;;;;;;1.83;1.27;;;2.20;99.90;;;;;;4413076;32;20124;-68
2021/12/05 06:23:21;;;;;;;0.98;0.90;;;2.10;99.90;;;;;;4417362;32;20070;-67
2021/12/05 06:25:49;;;;;;;1.37;1.27;;;2.10;99.90;;;;;;4425512;32;20636;-68
2021/12/05 06:28:16;;;;;;;0.60;0.60;;;2.20;99.90;;;;;;4425338;32;20116;-68
2021/12/05 06:31:00;;;;;;;0.75;0.75;;;2.30;99.90;;;;;;4425167;32;20085;-67
2021/12/05 06:38:00;;;;;;;0.82;0.82;;;2.20;99.90;;;;;;4403410;32;20101;-68
2021/12/05 06:42:04;;;;;;;0.85;0.82;;;2.20;99.90;;;;;;4419672;32;20077;-68
2021/12/05 06:46:39;;;;;;;1.98;1.77;;;2.20;99.90;;;;;;4422470;32;20108;-68
2021/12/05 06:49:05;;;;;;;0.80;0.80;;;2.20;99.90;;;;;;4427989;32;20073;-68
2021/12/05 06:51:30;;;;;;;7.47;2.25;;;2.20;99.90;;;;;;4426398;32;20077;-68
2021/12/05 06:53:57;;;;;;;1.10;1.10;;;2.20;99.90;;;;;;4419775;32;20088;-67
2021/12/05 06:56:23;;;;;;;1.67;1.58;;;2.30;99.90;;;;;;4413795;32;20538;-68
2021/12/05 06:58:49;;;;;;;2.12;1.65;;;2.30;99.90;;;;;;4421503;32;20078;-68
2021/12/05 07:01:16;;;;;;;1.40;1.25;;;2.20;99.90;;;;;;4417761;32;20094;-68
2021/12/05 07:03:45;;;;;;;5.57;1.87;;;2.20;99.90;;;;;;4423333;32;20057;-68
2021/12/05 07:06:19;;;;;;;0.73;0.73;;;2.40;99.90;;;;;;4423154;32;20422;-68
2021/12/05 07:08:45;;;;;;;2.92;1.67;;;2.40;99.90;;;;;;4425220;32;20437;-68
2021/12/05 07:11:26;;;;;;;1.00;0.90;;;2.40;99.90;;;;;;4417905;32;20468;-67
2021/12/05 07:14:23;;;;;;;2.03;1.55;;;2.40;99.90;;;;;;4425216;32;20073;-68
2021/12/05 07:20:23;;;;;;;1.15;1.12;;;2.50;99.90;;;;;;4414002;32;20138;-68
2021/12/05 07:21:56;;;;;;;2.92;2.10;;;2.50;99.90;;;;;;4401382;32;20070;-67
2021/12/05 07:40:26;;;;;;;2.47;1.95;;;2.20;99.90;;;;;;4418062;32;20479;-68
2021/12/05 07:42:55;;;;;;;1.75;1.62;;;2.20;99.90;;;;;;4427229;32;20113;-69
2021/12/05 07:45:28;;;;;;;3.97;2.87;;;2.20;99.90;;;;;;4425279;32;20117;-68
2021/12/05 07:47:55;;;;;;;4.37;2.37;;;2.10;99.90;;;;;;4427650;32;20065;-68
2021/12/05 07:50:32;;;;;;;4.53;2.15;;;2.10;99.90;;;;;;4431804;32;20198;-68
2021/12/05 07:53:06;;;;;;;5.03;3.15;;;2.10;99.90;;;;;;4421188;32;20073;-67
2021/12/05 07:55:38;;;;;;;3.40;2.30;;;2.00;99.90;;;;;;4426683;32;20062;-69
2021/12/05 07:58:24;;;;;;;2.80;2.30;;;2.00;99.90;;;;;;4430197;32;20160;-68
2021/12/05 08:01:03;;;;;;;1.42;1.25;;;2.10;99.90;;;;;;4414009;32;20073;-68
2021/12/05 08:14:38;;;;;;;3.08;2.30;;;2.10;99.90;;;;;;4406049;32;20090;-68
2021/12/05 08:17:05;;;;;;;1.33;1.23;;;2.20;99.90;;;;;;4415086;32;20618;-67
2021/12/05 08:19:31;;;;;;;4.30;2.83;;;2.20;99.90;;;;;;4414875;32;20586;-67
2021/12/05 08:21:57;;;;;;;2.15;1.90;;;2.20;99.90;;;;;;4420393;32;20073;-67
2021/12/05 08:24:25;;;;;;;3.22;1.55;;;2.20;99.90;;;;;;4424099;32;20120;-67
2021/12/05 08:26:52;;;;;;;3.00;2.30;;;2.10;99.90;;;;;;4416792;32;20439;-67
2021/12/05 08:29:24;;;;;;;16.77;1.85;;;2.10;99.90;;;;;;4414573;32;20077;-67
2021/12/05 08:34:46;;;;;;;2.15;1.40;;;2.00;99.90;;;;;;4419294;32;20077;-67
2021/12/05 08:37:34;;;;;;;3.05;1.67;;;2.10;99.90;;;;;;4410299;32;20605;-67
2021/12/05 08:44:22;;;;;;;11.55;4.75;;;2.00;99.90;;;;;;4427093;32;20140;-67
2021/12/05 09:20:36;;;;;;;3.62;2.55;;;2.30;99.90;;;;;;4416546;32;20073;-67
2021/12/05 09:21:47;;;;;;;7.95;3.03;;;2.30;99.90;;;;;;4412924;32;20062;-67
2021/12/05 09:24:13;;;;;;;1.85;1.60;;;2.30;99.90;;;;;;4408073;32;20070;-67
2021/12/05 09:26:54;;;;;;;2.78;2.05;;;2.30;99.90;;;;;;4415216;32;20073;-67
2021/12/05 09:29:56;;;;;;;1.08;1.08;;;2.30;99.90;;;;;;4428378;32;20098;-67
2021/12/05 09:40:09;;;;;;;3.62;2.30;;;2.40;99.90;;;;;;4409850;32;20513;-67
2021/12/05 09:50:51;;;;;;;1.62;1.52;;;2.50;99.90;;;;;;4402292;32;20077;-67
2021/12/05 10:01:57;;;;;;;3.12;2.03;;;2.70;99.90;;;;;;4401993;32;20066;-67
2021/12/05 10:07:17;;;;;;;2.78;1.95;;;2.50;99.90;;;;;;4419905;32;20112;-67
2021/12/05 10:09:08;;;;;;;0.77;0.77;;;2.50;99.90;;;;;;4410796;32;20463;-68
2021/12/05 10:10:55;;;;;;;10.07;3.58;;;2.50;99.90;;;;;;4412571;32;20062;-67
2021/12/05 10:13:36;;;;;;;3.20;1.83;;;2.40;99.90;;;;;;4403261;32;20065;-68
2021/12/05 10:16:26;;;;;;;4.18;2.20;;;2.30;99.90;;;;;;4424782;32;20431;-67
2021/12/05 10:19:18;;;;;;;1.80;1.65;;;2.40;99.90;;;;;;4402237;32;20504;-67
2021/12/05 10:34:03;;;;;;;4.07;2.45;;;2.40;99.90;;;;;;4406183;32;20074;-67
2021/12/05 10:36:19;;;;;;;6.45;3.60;;;2.50;99.90;;;;;;4409823;32;20112;-67
2021/12/05 10:38:32;;;;;;;5.20;2.83;;;2.50;99.90;;;;;;4413483;32;20080;-67
2021/12/05 10:41:19;;;;;;;2.35;2.15;;;2.60;99.90;;;;;;4427792;32;20085;-67
2021/12/05 10:43:49;;;;;;;3.17;1.52;;;2.70;99.90;;;;;;4422639;32;20073;-67
2021/12/05 10:46:17;;;;;;;1.75;1.65;;;2.70;99.90;;;;;;4421959;32;20070;-67
2021/12/05 10:48:47;;;;;;;3.25;1.87;;;2.70;99.90;;;;;;4426517;32;20506;-67
2021/12/05 10:51:20;;;;;;;6.25;2.70;;;2.80;99.90;;;;;;4416767;32;20090;-67
2021/12/05 10:53:49;;;;;;;2.17;1.87;;;2.90;99.90;;;;;;4422697;32;20057;-67
2021/12/05 10:56:20;;;;;;;10.25;2.78;;;3.00;99.90;;;;;;4416163;32;20193;-66
2021/12/05 10:59:07;;;;;;;1.10;1.10;;;2.80;99.90;;;;;;4416928;32;20062;-67
2021/12/05 11:01:55;;;;;;;1.90;1.75;;;2.80;99.90;;;;;;4417071;32;20123;-67
2021/12/05 11:04:27;;;;;;;1.40;1.17;;;3.00;99.90;;;;;;4405153;32;20105;-67
2021/12/05 11:06:59;;;;;;;1.58;1.48;;;3.00;99.90;;;;;;4419526;32;20081;-67
2021/12/05 11:09:30;;;;;;;8.80;2.92;;;2.90;99.90;;;;;;4417863;32;20415;-67
2021/12/05 11:12:00;;;;;;;2.17;1.70;;;2.80;99.90;;;;;;4422223;32;20085;-67
2021/12/05 11:14:29;;;;;;;4.35;3.00;;;2.80;99.90;;;;;;4416791;32;20062;-67
2021/12/05 11:17:00;;;;;;;11.43;4.93;;;2.90;99.90;;;;;;4416328;32;20463;-67
2021/12/05 11:19:30;;;;;;;2.90;2.53;;;2.90;99.90;;;;;;4418306;32;20065;-68
2021/12/05 11:22:00;;;;;;;3.65;1.83;;;2.80;99.90;;;;;;4416683;32;20450;-67
2021/12/05 11:24:31;;;;;;;3.30;2.87;;;2.90;99.90;;;;;;4420978;32;20118;-67
2021/12/05 11:27:19;;;;;;;9.82;2.40;;;2.90;99.90;;;;;;4415354;32;20066;-68
2021/12/05 11:29:50;;;;;;;1.27;1.17;;;3.00;99.90;;;;;;4411557;32;20050;-67
2021/12/05 11:32:21;;;;;;;2.17;1.55;;;3.10;99.90;;;;;;4422658;32;20086;-67
2021/12/05 11:34:47;;;;;;;9.88;2.10;;;3.10;99.90;;;;;;4416749;32;20383;-67
2021/12/05 11:37:14;;;;;;;13.02;2.03;;;3.10;99.90;;;;;;4419709;32;20069;-67
2021/12/05 11:39:39;;;;;;;1.30;1.20;;;3.10;99.90;;;;;;4421838;32;20057;-67
2021/12/05 11:42:15;;;;;;;1.98;1.80;;;3.10;99.90;;;;;;4427327;32;20061;-67
2021/12/05 11:44:41;;;;;;;1.08;1.08;;;3.00;99.90;;;;;;4419731;32;20068;-67
2021/12/05 11:47:16;;;;;;;3.87;2.47;;;2.90;99.90;;;;;;4419032;32;20156;-67
2021/12/05 11:49:42;;;;;;;3.12;1.98;;;2.80;99.90;;;;;;4423487;32;20153;-67
2021/12/05 11:52:08;;;;;;;3.30;1.85;;;2.90;99.90;;;;;;4415833;32;20081;-67
2021/12/05 11:54:41;;;;;;;3.50;2.45;;;3.00;99.90;;;;;;4428235;32;20509;-68
2021/12/05 11:57:11;;;;;;;11.90;3.47;;;3.00;99.90;;;;;;4416716;32;20074;-68
2021/12/05 11:59:40;;;;;;;5.27;2.93;;;3.10;99.90;;;;;;4420731;32;20049;-67
2021/12/05 12:02:09;;;;;;;10.70;2.75;;;3.10;99.90;;;;;;4429463;32;20117;-67
2021/12/05 12:04:43;;;;;;;3.67;1.98;;;3.10;99.90;;;;;;4425681;32;20074;-67
2021/12/05 12:07:13;;;;;;;1.65;1.48;;;3.00;99.90;;;;;;4416733;32;20065;-67
2021/12/05 12:09:40;;;;;;;1.02;1.00;;;3.10;99.90;;;;;;4417597;32;20081;-67
2021/12/05 12:12:06;;;;;;;4.47;3.30;;;3.10;99.90;;;;;;4421465;32;20128;-67
2021/12/05 12:14:32;;;;;;;2.22;1.77;;;3.20;99.90;;;;;;4425298;32;20604;-67
2021/12/05 12:16:58;;;;;;;1.95;1.58;;;3.20;99.90;;;;;;4418745;32;20086;-67
2021/12/05 12:19:24;;;;;;;4.57;2.40;;;3.10;99.90;;;;;;4423799;32;20485;-67
2021/12/05 12:21:52;;;;;;;1.80;1.42;;;3.10;99.90;;;;;;4415490;32;20113;-67
2021/12/05 12:24:19;;;;;;;2.87;2.15;;;3.10;99.90;;;;;;4414932;32;20057;-67
2021/12/05 12:26:45;;;;;;;3.15;2.03;;;3.20;99.90;;;;;;4422343;32;20061;-68
2021/12/05 12:29:12;;;;;;;2.72;1.77;;;3.10;99.90;;;;;;4421443;32;20058;-68
2021/12/05 12:31:41;;;;;;;3.90;2.90;;;3.10;99.90;;;;;;4418653;32;20061;-68
2021/12/05 12:34:12;;;;;;;1.92;1.75;;;3.00;99.90;;;;;;4419444;32;20057;-68
2021/12/05 12:36:44;;;;;;;2.28;1.83;;;3.10;99.90;;;;;;4424332;32;20064;-68
2021/12/05 12:39:20;;;;;;;1.40;1.30;;;3.10;99.90;;;;;;4415803;32;20451;-68
2021/12/05 12:42:16;;;;;;;1.45;1.35;;;3.10;99.90;;;;;;4419373;32;20133;-67
2021/12/05 12:45:10;;;;;;;4.15;2.65;;;3.20;99.90;;;;;;4409129;32;20061;-68
2021/12/05 12:47:42;;;;;;;3.22;2.12;;;3.20;99.90;;;;;;4406332;32;20081;-68
2021/12/05 12:50:34;;;;;;;3.17;2.33;;;3.10;99.90;;;;;;4416430;32;20070;-67
2021/12/05 12:53:10;;;;;;;4.68;3.80;;;3.00;99.90;;;;;;4403649;32;20065;-68
2021/12/05 12:55:39;;;;;;;2.95;2.53;;;3.00;99.90;;;;;;4418848;32;20069;-68
2021/12/05 12:58:10;;;;;;;4.40;2.50;;;3.10;99.90;;;;;;4415011;32;20492;-68
2021/12/05 13:00:40;;;;;;;6.55;2.55;;;3.00;99.90;;;;;;4429335;32;20056;-68
2021/12/05 13:03:25;;;;;;;2.08;1.95;;;3.00;99.90;;;;;;4419776;32;20076;-68
2021/12/05 13:07:16;;;;;;;3.95;3.25;;;3.00;99.90;;;;;;4423347;32;20168;-68
2021/12/05 13:10:09;;;;;;;27.83;3.12;;;3.00;99.90;;;;;;4404482;32;20158;-68
2021/12/05 13:11:23;;;;;;;2.40;2.20;;;2.90;99.90;;;;;;4414906;32;20439;-67
2021/12/05 13:14:06;;;;;;;6.18;3.05;;;2.90;99.90;;;;;;4425426;32;20069;-68
2021/12/05 13:16:35;;;;;;;2.37;1.65;;;2.90;99.90;;;;;;4416057;32;20065;-68
2021/12/05 13:19:22;;;;;;;4.22;2.75;;;2.90;99.90;;;;;;4420046;32;20140;-68
2021/12/05 13:21:52;;;;;;;3.53;2.70;;;3.00;99.90;;;;;;4426508;32;20512;-68
2021/12/05 13:24:26;;;;;;;2.83;2.00;;;3.00;99.90;;;;;;4422180;32;20612;-68
2021/12/05 13:27:01;;;;;;;3.33;1.90;;;3.00;99.90;;;;;;4420932;32;20112;-68
2021/12/05 13:29:29;;;;;;;2.40;1.65;;;3.00;99.90;;;;;;4417417;32;20054;-68
2021/12/05 13:32:07;;;;;;;4.60;3.45;;;3.10;99.90;;;;;;4420453;32;20065;-68
2021/12/05 13:34:43;;;;;;;4.82;2.15;;;3.10;99.90;;;;;;4428514;32;20081;-68
2021/12/05 13:37:13;;;;;;;2.30;1.80;;;3.10;99.90;;;;;;4414303;32;20058;-68
2021/12/05 13:39:43;;;;;;;10.15;4.60;;;3.10;99.90;;;;;;4414836;32;20062;-68
2021/12/05 13:42:39;;;;;;;2.25;1.98;;;3.10;99.90;;;;;;4428381;32;20202;-68
2021/12/05 13:45:08;;;;;;;2.30;1.80;;;3.10;99.90;;;;;;4417316;32;20061;-68
2021/12/05 13:47:41;;;;;;;4.65;3.20;;;3.20;99.90;;;;;;4417979;32;20082;-68
2021/12/05 13:50:25;;;;;;;11.50;3.35;;;3.20;99.90;;;;;;4428250;32;20336;-68
2021/12/05 13:53:09;;;;;;;2.35;2.10;;;3.20;99.90;;;;;;4421047;32;20116;-67
2021/12/05 13:55:38;;;;;;;7.20;2.95;;;3.20;99.90;;;;;;4417416;32;20089;-67
2021/12/05 13:58:29;;;;;;;4.82;2.67;;;3.20;99.90;;;;;;4421987;32;20086;-68
2021/12/05 14:01:20;;;;;;;4.37;2.75;;;3.10;99.90;;;;;;4407064;32;20057;-67
2021/12/05 14:04:08;;;;;;;4.87;2.25;;;3.10;99.90;;;;;;4409922;32;20085;-67
2021/12/05 14:06:38;;;;;;;7.70;3.62;;;3.10;99.90;;;;;;4414198;32;20406;-68
2021/12/05 14:09:07;;;;;;;3.67;2.80;;;3.10;99.90;;;;;;4421132;32;20061;-67
2021/12/05 14:11:56;;;;;;;1.40;1.30;;;3.20;99.90;;;;;;4425231;32;20082;-68
2021/12/05 14:14:28;;;;;;;4.68;3.35;;;3.10;99.90;;;;;;4413816;32;20134;-67
2021/12/05 14:16:56;;;;;;;2.65;2.40;;;2.90;99.90;;;;;;4421409;32;20049;-67
2021/12/05 14:19:25;;;;;;;2.00;1.87;;;3.00;99.90;;;;;;4423470;32;20583;-67
2021/12/05 14:21:54;;;;;;;5.82;2.70;;;3.00;99.90;;;;;;4426845;32;20053;-66
2021/12/05 14:24:22;;;;;;;3.67;2.85;;;3.10;99.90;;;;;;4426270;32;20470;-65
2021/12/05 14:26:50;;;;;;;3.75;2.20;;;3.10;99.90;;;;;;4418515;32;20069;-67
2021/12/05 14:29:22;;;;;;;2.37;2.03;;;3.20;99.90;;;;;;4419060;32;20081;-66
2021/12/05 14:31:51;;;;;;;2.40;2.20;;;3.20;99.90;;;;;;4426426;32;20074;-66
2021/12/05 14:34:18;;;;;;;2.53;2.20;;;3.20;99.90;;;;;;4417284;32;20557;-66
2021/12/05 14:36:48;;;;;;;2.70;2.35;;;3.20;99.90;;;;;;4415601;32;20058;-66
2021/12/05 14:39:18;;;;;;;1.52;1.42;;;3.20;99.90;;;;;;4423182;32;20124;-66
2021/12/05 14:41:46;;;;;;;4.28;2.97;;;3.20;99.90;;;;;;4422929;32;20078;-66
2021/12/05 14:44:13;;;;;;;1.75;1.50;;;3.10;99.90;;;;;;4421446;32;20061;-66
2021/12/05 14:46:50;;;;;;;5.95;2.80;;;3.10;99.90;;;;;;4421253;32;20073;-66
2021/12/05 14:49:18;;;;;;;2.05;1.92;;;3.00;99.90;;;;;;4421934;32;20061;-66
2021/12/05 14:51:45;;;;;;;4.57;3.03;;;2.90;99.90;;;;;;4423957;32;20535;-66
2021/12/05 14:54:18;;;;;;;4.62;3.37;;;2.90;99.90;;;;;;4421404;32;20076;-66
2021/12/05 14:56:43;;;;;;;2.70;2.35;;;2.90;99.90;;;;;;4426327;32;20061;-66
2021/12/05 14:59:12;;;;;;;3.33;1.73;;;2.80;99.90;;;;;;4415872;32;20538;-66
2021/12/05 15:01:40;;;;;;;4.18;2.97;;;2.80;99.90;;;;;;4417406;32;20101;-67
2021/12/05 15:04:07;;;;;;;6.57;3.20;;;2.80;99.90;;;;;;4413742;32;20081;-66
2021/12/05 15:06:39;;;;;;;5.97;2.58;;;2.70;99.90;;;;;;4425364;32;20086;-66
2021/12/05 15:09:14;;;;;;;3.30;2.35;;;2.70;99.90;;;;;;4415209;32;20427;-66
2021/12/05 15:11:47;;;;;;;3.25;2.90;;;2.70;99.90;;;;;;4420117;32;20069;-66
2021/12/05 15:14:12;;;;;;;6.12;3.15;;;2.70;99.90;;;;;;4420818;32;20061;-65
2021/12/05 15:16:58;;;;;;;4.28;2.12;;;2.70;99.90;;;;;;4414215;32;20582;-67
2021/12/05 15:19:24;;;;;;;1.17;1.17;;;2.80;99.90;;;;;;4419390;32;20148;-67
2021/12/05 15:21:50;;;;;;;6.65;3.25;;;2.70;99.90;;;;;;4417225;32;20133;-67
2021/12/05 15:24:18;;;;;;;7.45;3.17;;;2.70;99.90;;;;;;4424787;32;20414;-67
2021/12/05 15:26:43;;;;;;;2.25;1.77;;;2.80;99.90;;;;;;4413937;32;20109;-67
2021/12/05 15:29:09;;;;;;;12.50;2.60;;;2.80;99.90;;;;;;4419229;32;20065;-67
2021/12/05 15:31:37;;;;;;;1.08;1.08;;;2.90;99.90;;;;;;4423544;32;20555;-67
2021/12/05 15:34:17;;;;;;;59.67;3.25;;;2.80;99.90;;;;;;4425219;32;20120;-66
2021/12/05 15:36:43;;;;;;;2.62;2.35;;;2.80;99.90;;;;;;4423937;32;20112;-66
2021/12/05 15:39:19;;;;;;;1.77;1.67;;;2.80;99.90;;;;;;4425954;32;20081;-66
2021/12/05 15:41:45;;;;;;;1.58;1.48;;;2.80;99.90;;;;;;4427683;32;20061;-67
2021/12/05 15:44:22;;;;;;;4.65;2.03;;;2.70;99.90;;;;;;4423268;32;20074;-66
2021/12/05 15:46:49;;;;;;;2.97;2.42;;;2.70;99.90;;;;;;4426890;32;20120;-67
2021/12/05 15:49:14;;;;;;;1.85;1.50;;;2.80;99.90;;;;;;4419258;32;20057;-67
2021/12/05 15:51:40;;;;;;;1.67;1.35;;;2.80;99.90;;;;;;4426858;32;20065;-67
2021/12/05 15:54:06;;;;;;;1.92;1.83;;;2.80;99.90;;;;;;4420063;32;20109;-67
2021/12/05 15:56:31;;;;;;;4.90;2.10;;;2.80;99.90;;;;;;4429098;32;20065;-66
2021/12/05 15:59:01;;;;;;;3.37;1.85;;;2.70;99.90;;;;;;4430051;32;20121;-66
2021/12/05 16:01:29;;;;;;;4.83;2.77;;;2.80;99.90;;;;;;4423280;32;20494;-67
2021/12/05 16:03:59;;;;;;;3.28;2.55;;;2.80;99.90;;;;;;4415391;32;20077;-67
2021/12/05 16:06:40;;;;;;;3.87;3.28;;;2.80;99.90;;;;;;4416038;32;20482;-67
2021/12/05 16:09:19;;;;;;;1.35;1.25;;;2.80;99.90;;;;;;4409627;32;20098;-67
2021/12/05 16:11:48;;;;;;;2.87;2.53;;;2.80;99.90;;;;;;4429143;32;20081;-67
2021/12/05 16:14:28;;;;;;;5.68;2.95;;;2.80;99.90;;;;;;4419743;32;20129;-67
2021/12/05 16:16:53;;;;;;;9.27;2.87;;;2.90;99.90;;;;;;4426485;32;20073;-67
2021/12/05 16:19:19;;;;;;;4.47;2.60;;;2.90;99.90;;;;;;4420306;32;20090;-67
2021/12/05 16:21:44;;;;;;;4.22;2.58;;;2.90;99.90;;;;;;4417690;32;20090;-67
2021/12/05 16:24:14;;;;;;;6.07;3.15;;;2.80;99.90;;;;;;4428266;32;20158;-67
2021/12/05 16:26:41;;;;;;;2.20;1.95;;;2.90;99.90;;;;;;4422335;32;20073;-67